logo
Search for airport 
image banner adimage banner adimage banner ad
image banner ad

OPZB - Zhob

Located in Zhob, Pakistan

ICAO - OPZB, IATA - PZH

Data provided by Airmate  

General information

Coordinates: N31°21'30" E69°27'50"
Elevation is 4729 feet MSL.
 
View others Airports in Balochistan

Operational data

Special qualification required
Current time UTC:
Current local time:
Weather at : - ( 0 km )
METAR: CYQA 130628Z AUTO 29012G20KT 1 3/4SM -SN OVC010 01/00 A2933 RMK ICE PCPN 0.5MM PAST HR SLP946
View NOTAMs / SUP AIP / TFR affecting this airport [VIEW]
Communications frequencies: [VIEW]

Runways:

RWY identifierQFULength (ft)Width (ft)SurfaceLDA (ft)
10101°600198UNK
28281°600198UNK

Airport contact information

Address: Zhob Pakistan

Satellite view of OPZB